Time;durP1;ratioP1;P1;durP2;ratioP2;P2;SDS_P1;SDS_P2;PMS_P1;PMS_P2;Temp;Humidity;BMP_temperature;BMP_pressure;BME280_temperature;BME280_humidity;BME280_pressure;Samples;Min_cycle;Max_cycle;Signal;HPM_P1;HPM_P2
2021/04/05 00:00:58;;;;;;;15.95;9.15;;;;;;;3.84;72.47;100358.47;5008277;28;20118;-66
2021/04/05 00:03:23;;;;;;;15.80;8.82;;;;;;;3.83;71.95;100351.56;5009116;28;20041;-66
2021/04/05 00:05:49;;;;;;;17.55;8.55;;;;;;;3.83;71.81;100346.31;5009064;28;20513;-66
2021/04/05 00:08:14;;;;;;;15.55;9.15;;;;;;;3.79;71.52;100352.72;5012448;28;20033;-65
2021/04/05 00:10:46;;;;;;;17.27;8.88;;;;;;;3.78;73.20;100356.28;5013089;28;20053;-66
2021/04/05 00:13:22;;;;;;;12.93;6.97;;;;;;;3.85;70.82;100348.84;5005093;28;20045;-66
2021/04/05 00:15:47;;;;;;;14.10;7.90;;;;;;;3.85;69.20;100339.19;5012076;28;20038;-66
2021/04/05 00:18:14;;;;;;;17.08;8.57;;;;;;;3.83;70.28;100335.88;5011939;28;20368;-66
2021/04/05 00:20:55;;;;;;;15.30;8.48;;;;;;;3.79;70.15;100327.44;4993899;28;20038;-66
2021/04/05 00:23:21;;;;;;;;;;;;;;;3.72;72.17;100341.03;5006064;28;20034;-66
2021/04/05 00:25:46;;;;;;;19.90;8.80;;;;;;;3.64;71.14;100336.38;5007170;28;19917;-66
2021/04/05 00:28:12;;;;;;;14.27;7.85;;;;;;;3.65;72.43;100329.34;5000760;28;20503;-66
2021/04/05 00:30:38;;;;;;;15.30;7.82;;;;;;;3.67;70.87;100332.69;5008060;28;20033;-66
2021/04/05 00:33:05;;;;;;;15.25;8.55;;;;;;;3.66;74.87;100334.50;5003847;28;20080;-66
2021/04/05 00:35:33;;;;;;;17.65;7.78;;;;;;;3.73;73.85;100332.25;4997718;28;20049;-66
2021/04/05 00:38:00;;;;;;;15.85;7.40;;;;;;;3.87;69.67;100326.84;5012474;28;20038;-66
2021/04/05 00:40:30;;;;;;;10.60;5.40;;;;;;;3.89;72.12;100326.75;5011478;28;20458;-66
2021/04/05 00:42:56;;;;;;;19.58;9.80;;;;;;;3.97;68.72;100311.31;5011196;28;20157;-65
2021/04/05 00:45:22;;;;;;;11.73;6.18;;;;;;;3.94;71.97;100308.94;5007023;28;20564;-65
2021/04/05 00:47:49;;;;;;;17.55;8.90;;;;;;;3.91;70.93;100311.75;5009207;28;20427;-65
2021/04/05 00:50:40;;;;;;;12.25;7.65;;;;;;;3.81;71.70;100312.47;5011378;28;20037;-66
2021/04/05 00:53:07;;;;;;;12.68;7.10;;;;;;;3.85;71.89;100299.97;5011462;28;20041;-66
2021/04/05 00:55:33;;;;;;;13.18;7.13;;;;;;;3.80;69.90;100294.25;5011247;28;20387;-66
2021/04/05 00:58:00;;;;;;;16.23;7.18;;;;;;;3.82;71.61;100289.75;5011763;28;20505;-66
2021/04/05 01:00:33;;;;;;;15.85;8.05;;;;;;;3.91;69.17;100278.59;5011272;28;20034;-66
2021/04/05 01:02:59;;;;;;;14.13;7.97;;;;;;;3.88;73.58;100270.97;5011173;28;20038;-66
2021/04/05 01:05:25;;;;;;;15.05;8.63;;;;;;;3.95;70.01;100259.09;5011020;28;20036;-66
2021/04/05 01:07:51;;;;;;;17.65;8.10;;;;;;;3.96;69.75;100245.06;5010319;28;20750;-66
2021/04/05 01:10:17;;;;;;;18.48;8.90;;;;;;;3.89;71.31;100243.03;5007133;28;20061;-66
2021/04/05 01:12:42;;;;;;;19.75;10.13;;;;;;;3.69;71.72;100247.13;4987394;28;20046;-66
2021/04/05 01:15:11;;;;;;;22.10;10.00;;;;;;;3.51;73.02;100239.72;4991855;28;20274;-66
2021/04/05 01:17:38;;;;;;;15.10;8.70;;;;;;;3.43;72.93;100239.44;5011160;28;20064;-66
2021/04/05 01:20:11;;;;;;;19.88;9.48;;;;;;;3.35;73.52;100233.94;5010774;28;20037;-66
2021/04/05 01:22:37;;;;;;;18.75;9.30;;;;;;;3.33;71.78;100233.22;5011300;28;20072;-66
2021/04/05 01:25:08;;;;;;;18.50;9.20;;;;;;;3.42;71.03;100227.31;4988447;28;20034;-66
2021/04/05 01:27:33;;;;;;;23.52;10.23;;;;;;;3.48;72.90;100219.03;4997057;28;20462;-66
2021/04/05 01:29:59;;;;;;;22.77;10.63;;;;;;;3.56;71.46;100203.59;5001757;28;20027;-66
2021/04/05 01:32:24;;;;;;;19.48;9.30;;;;;;;3.61;71.59;100198.88;5006470;28;20050;-67
2021/04/05 01:34:50;;;;;;;21.00;9.27;;;;;;;3.69;70.79;100189.59;5007617;28;20029;-66
2021/04/05 01:37:15;;;;;;;15.43;7.72;;;;;;;3.69;72.24;100182.59;5009866;28;20041;-66
2021/04/05 01:39:40;;;;;;;16.58;8.10;;;;;;;3.68;73.77;100180.94;5010256;28;20038;-66
2021/04/05 01:42:06;;;;;;;19.95;10.20;;;;;;;3.55;72.64;100183.66;5008041;28;20120;-67
2021/04/05 01:44:33;;;;;;;17.80;9.30;;;;;;;3.45;72.90;100189.66;5010657;28;20030;-66
2021/04/05 01:46:58;;;;;;;15.85;8.75;;;;;;;3.37;74.04;100190.25;5002752;28;20039;-66
2021/04/05 01:49:24;;;;;;;14.88;8.05;;;;;;;3.35;72.94;100187.75;5004240;28;20501;-66
2021/04/05 01:51:49;;;;;;;22.10;9.55;;;;;;;3.51;71.38;100178.78;5008763;28;20064;-66
2021/04/05 01:54:14;;;;;;;23.42;9.40;;;;;;;3.59;71.61;100169.38;5009805;28;20371;-66
2021/04/05 01:56:40;;;;;;;18.08;8.40;;;;;;;3.68;71.33;100164.44;5010347;28;20489;-66
2021/04/05 01:59:05;;;;;;;17.17;7.70;;;;;;;3.74;71.45;100150.88;5010107;28;20069;-66
2021/04/05 02:01:31;;;;;;;17.05;7.57;;;;;;;3.80;70.44;100160.88;5009426;28;20046;-66
2021/04/05 02:03:57;;;;;;;15.27;8.10;;;;;;;3.78;71.92;100142.66;5009537;28;20041;-66
2021/04/05 02:06:36;;;;;;;15.82;8.90;;;;;;;3.79;71.25;100146.97;4991402;28;20125;-66
2021/04/05 02:09:05;;;;;;;23.08;9.40;;;;;;;3.83;71.28;100144.94;5010474;28;20034;-66
2021/04/05 02:11:36;;;;;;;14.80;8.00;;;;;;;3.83;70.89;100143.16;5005245;28;20035;-66
2021/04/05 02:14:04;;;;;;;16.55;9.55;;;;;;;3.87;70.56;100142.94;4998924;28;20096;-66
2021/04/05 02:16:30;;;;;;;18.80;8.98;;;;;;;3.83;72.03;100131.84;4991973;28;20466;-66
2021/04/05 02:18:57;;;;;;;13.70;8.18;;;;;;;3.75;72.29;100126.41;5008759;28;20072;-66
2021/04/05 02:21:24;;;;;;;19.58;10.10;;;;;;;3.60;72.63;100121.41;5008910;28;20038;-66
2021/04/05 02:23:51;;;;;;;20.70;9.30;;;;;;;3.54;73.34;100123.63;5010001;28;20034;-66
2021/04/05 02:26:31;;;;;;;20.23;10.07;;;;;;;3.40;74.63;100116.84;5007914;28;20410;-66
2021/04/05 02:29:00;;;;;;;22.88;10.15;;;;;;;3.44;72.73;100101.78;5006717;28;20435;-66
2021/04/05 02:31:29;;;;;;;16.35;8.75;;;;;;;3.49;72.42;100099.63;5010303;28;20026;-66
2021/04/05 02:33:56;;;;;;;17.50;9.80;;;;;;;3.62;73.17;100092.50;5000607;28;20077;-66
2021/04/05 02:36:25;;;;;;;22.92;10.60;;;;;;;3.61;73.72;100094.28;4993105;28;20037;-66
2021/04/05 02:38:57;;;;;;;23.17;11.25;;;;;;;3.66;72.67;100087.88;5009733;28;20133;-66
2021/04/05 02:41:25;;;;;;;19.63;11.35;;;;;;;3.86;72.12;100081.09;5003597;28;20034;-67
2021/04/05 02:43:52;;;;;;;20.60;9.85;;;;;;;4.05;71.51;100076.06;4991633;28;20038;-66
2021/04/05 02:46:24;;;;;;;18.30;9.68;;;;;;;4.26;70.80;100074.38;5006109;28;20090;-66
2021/04/05 02:48:51;;;;;;;24.35;9.75;;;;;;;4.45;70.28;100063.25;5008949;28;20030;-67
2021/04/05 02:51:17;;;;;;;15.40;7.82;;;;;;;4.55;69.86;100057.28;5007714;28;20219;-67
2021/04/05 02:53:46;;;;;;;14.20;8.18;;;;;;;4.64;69.38;100056.53;5009910;28;20045;-67
2021/04/05 02:56:12;;;;;;;15.80;8.52;;;;;;;4.74;69.04;100056.63;5008319;28;20030;-68
2021/04/05 02:58:46;;;;;;;18.13;9.38;;;;;;;4.82;68.77;100060.28;5009854;28;20049;-67
2021/04/05 03:01:13;;;;;;;15.38;7.82;;;;;;;4.87;68.83;100057.28;5008928;28;20038;-67
2021/04/05 03:03:40;;;;;;;16.13;7.25;;;;;;;4.95;68.27;100048.78;5010039;28;20038;-67
2021/04/05 03:06:07;;;;;;;16.90;7.55;;;;;;;4.98;68.25;100056.38;5006106;28;20046;-68
2021/04/05 03:08:33;;;;;;;16.17;7.57;;;;;;;5.05;67.98;100050.53;5009893;28;20699;-67
2021/04/05 03:10:58;;;;;;;18.50;7.97;;;;;;;5.08;67.96;100031.09;5008052;28;20053;-67
2021/04/05 03:13:25;;;;;;;16.00;8.13;;;;;;;5.13;67.62;100028.09;5002087;28;20451;-67
2021/04/05 03:15:52;;;;;;;13.40;7.32;;;;;;;5.15;67.44;100027.00;5008711;28;20037;-67
2021/04/05 03:18:20;;;;;;;12.48;7.15;;;;;;;5.15;67.46;100013.88;4991467;28;20029;-67
2021/04/05 03:20:46;;;;;;;14.05;7.50;;;;;;;5.16;67.47;100012.91;4991036;28;20034;-66
2021/04/05 03:23:12;;;;;;;14.52;7.22;;;;;;;5.18;67.09;100020.66;5008816;28;20046;-66
2021/04/05 03:25:37;;;;;;;14.75;7.65;;;;;;;5.16;67.29;100014.72;5008993;28;20026;-67
2021/04/05 03:28:02;;;;;;;15.07;7.68;;;;;;;5.21;67.02;100018.59;5008531;28;20030;-68
2021/04/05 03:30:41;;;;;;;16.40;7.05;;;;;;;5.25;67.17;100019.19;5010003;28;20033;-67
2021/04/05 03:33:14;;;;;;;14.57;6.90;;;;;;;5.23;66.97;100008.81;5008796;28;20513;-67
2021/04/05 03:35:42;;;;;;;15.63;6.80;;;;;;;5.26;67.06;100010.34;5008778;28;20430;-67
2021/04/05 03:38:10;;;;;;;16.23;6.55;;;;;;;5.29;67.10;99997.81;5006947;28;20241;-68
2021/04/05 03:40:35;;;;;;;14.35;6.43;;;;;;;5.34;66.88;99986.94;5008934;28;20042;-67
2021/04/05 03:43:13;;;;;;;17.23;7.03;;;;;;;5.41;66.55;99980.22;4999666;28;20526;-67
2021/04/05 03:45:57;;;;;;;12.82;6.57;;;;;;;5.48;66.50;99968.25;5004681;28;20037;-66
2021/04/05 03:48:36;;;;;;;14.23;6.60;;;;;;;5.53;66.47;99976.53;4995593;28;20129;-67
2021/04/05 03:51:17;;;;;;;13.18;6.63;;;;;;;5.54;66.38;99974.72;5009086;28;20029;-66
2021/04/05 03:53:44;;;;;;;15.82;6.35;;;;;;;5.62;66.15;99976.69;5001806;28;20184;-67
2021/04/05 03:56:16;;;;;;;13.77;6.32;;;;;;;5.64;66.23;99972.13;5005023;28;20030;-67
2021/04/05 03:58:47;;;;;;;15.18;6.43;;;;;;;5.67;66.02;99967.47;5002523;28;20034;-67
2021/04/05 04:01:17;;;;;;;12.35;6.35;;;;;;;5.71;66.01;99962.78;5007132;28;20042;-66
2021/04/05 04:03:58;;;;;;;15.10;6.43;;;;;;;5.72;65.94;99975.75;4992239;28;20136;-65
2021/04/05 04:06:31;;;;;;;15.85;6.90;;;;;;;5.80;65.50;99966.38;4999279;28;20041;-66
2021/04/05 04:08:58;;;;;;;14.00;6.97;;;;;;;5.81;65.68;99953.13;5001348;28;20092;-66
2021/04/05 04:11:27;;;;;;;15.60;6.88;;;;;;;5.85;65.58;99945.81;5009244;28;20104;-67
2021/04/05 04:13:55;;;;;;;14.02;6.63;;;;;;;5.84;65.81;99939.75;4999620;28;20050;-66
2021/04/05 04:16:22;;;;;;;12.70;6.93;;;;;;;5.84;65.77;99925.78;4993332;28;20054;-67
2021/04/05 04:18:48;;;;;;;20.45;7.22;;;;;;;5.85;65.80;99920.41;5008138;28;20156;-67
2021/04/05 04:21:15;;;;;;;13.48;6.40;;;;;;;5.83;66.02;99926.75;5000559;28;20034;-67
2021/04/05 04:23:41;;;;;;;14.40;6.72;;;;;;;5.86;65.88;99915.97;5008433;28;20048;-67
2021/04/05 04:26:06;;;;;;;13.15;6.53;;;;;;;5.85;65.92;99901.22;5007567;28;20121;-68
2021/04/05 04:28:35;;;;;;;13.13;6.35;;;;;;;5.92;65.71;99897.06;4995137;28;20030;-67
2021/04/05 04:31:02;;;;;;;12.77;6.40;;;;;;;5.97;65.74;99897.53;5008012;28;20034;-68
2021/04/05 04:33:32;;;;;;;16.02;7.05;;;;;;;6.01;65.40;99885.78;5001628;28;20049;-67
2021/04/05 04:35:57;;;;;;;15.70;5.80;;;;;;;6.02;65.57;99866.44;4990671;28;20121;-66
2021/04/05 04:38:24;;;;;;;15.00;6.82;;;;;;;6.12;65.10;99872.50;5008570;28;20037;-68
2021/04/05 04:40:50;;;;;;;19.98;8.52;;;;;;;6.20;65.04;99873.59;5008395;28;20030;-67
2021/04/05 04:43:16;;;;;;;15.10;6.45;;;;;;;6.19;65.08;99877.22;5004655;28;20029;-67
2021/04/05 04:45:42;;;;;;;14.45;6.93;;;;;;;6.24;65.02;99872.38;5008391;28;20495;-67
2021/04/05 04:48:08;;;;;;;13.02;7.03;;;;;;;6.30;64.82;99867.38;4997504;28;20042;-67
2021/04/05 04:50:34;;;;;;;15.95;6.70;;;;;;;6.32;64.82;99857.59;4993357;28;20136;-68
2021/04/05 04:52:59;;;;;;;14.20;6.93;;;;;;;6.40;64.32;99861.28;5001518;28;20038;-67
2021/04/05 04:55:27;;;;;;;14.52;6.40;;;;;;;6.42;64.27;99862.81;5011852;28;20033;-66
2021/04/05 04:57:59;;;;;;;14.68;7.25;;;;;;;6.45;64.25;99851.19;4996744;28;20038;-67
2021/04/05 05:00:27;;;;;;;15.52;7.20;;;;;;;6.45;64.17;99851.19;5011263;28;20045;-66
2021/04/05 05:02:52;;;;;;;15.93;6.90;;;;;;;6.45;64.23;99843.31;5003289;28;20116;-67
2021/04/05 05:05:21;;;;;;;14.82;6.70;;;;;;;6.40;64.71;99827.97;5006025;28;20505;-67
2021/04/05 05:07:46;;;;;;;14.85;7.65;;;;;;;6.42;64.64;99841.81;4996336;28;20038;-68
2021/04/05 05:10:12;;;;;;;15.15;7.55;;;;;;;6.37;64.65;99831.72;5004284;28;20032;-66
2021/04/05 05:12:39;;;;;;;15.85;7.10;;;;;;;6.43;64.58;99830.31;5005199;28;20039;-68
2021/04/05 05:15:10;;;;;;;21.65;7.28;;;;;;;6.40;64.90;99816.66;5010355;28;20053;-67
2021/04/05 05:17:37;;;;;;;;;;;;;;;6.41;64.84;99818.28;5003339;28;20052;-67
2021/04/05 05:20:03;;;;;;;18.02;7.65;;;;;;;6.41;64.72;99819.13;5010954;28;19923;-67
2021/04/05 05:22:30;;;;;;;17.42;7.78;;;;;;;6.35;65.15;99825.78;5010707;28;20507;-67
2021/04/05 05:24:56;;;;;;;15.73;6.72;;;;;;;6.36;65.13;99819.56;5010628;28;20080;-67
2021/04/05 05:27:24;;;;;;;15.10;7.65;;;;;;;6.34;65.34;99834.63;5010690;28;20466;-67
2021/04/05 05:29:51;;;;;;;17.75;7.57;;;;;;;6.35;65.15;99831.03;4990606;28;20038;-67
2021/04/05 05:32:19;;;;;;;15.98;7.78;;;;;;;6.33;65.54;99840.03;5004049;28;20083;-67
2021/04/05 05:34:46;;;;;;;19.58;8.13;;;;;;;6.37;65.39;99830.91;4996974;28;20391;-67
2021/04/05 05:37:13;;;;;;;21.17;7.50;;;;;;;6.37;65.39;99841.41;5007209;28;20041;-67
2021/04/05 05:39:40;;;;;;;17.13;7.32;;;;;;;6.36;65.54;99850.22;5010504;28;20038;-67
2021/04/05 05:42:13;;;;;;;16.58;7.18;;;;;;;6.40;65.41;99854.25;5002571;28;20076;-69
2021/04/05 05:45:01;;;;;;;16.73;8.38;;;;;;;6.45;65.36;99840.69;5011202;28;20045;-67
2021/04/05 05:48:08;;;;;;;12.40;6.82;;;;;;;6.44;65.23;99841.66;5004927;28;20068;-67
2021/04/05 05:50:54;;;;;;;14.68;7.30;;;;;;;6.50;65.19;99849.78;4982918;28;20116;-67
2021/04/05 05:53:28;;;;;;;11.00;7.35;;;;;;;6.53;65.18;99836.38;5005685;28;20046;-67
2021/04/05 05:56:27;;;;;;;16.05;7.45;;;;;;;6.55;65.21;99841.47;5010059;28;20042;-68
2021/04/05 05:59:09;;;;;;;17.30;7.63;;;;;;;6.59;65.06;99838.44;5008416;28;20041;-67
2021/04/05 06:01:34;;;;;;;18.60;8.65;;;;;;;6.61;65.09;99832.22;5004803;28;20107;-67
2021/04/05 06:04:11;;;;;;;14.77;7.97;;;;;;;6.62;65.06;99821.56;4992246;28;20515;-67
2021/04/05 06:06:59;;;;;;;17.55;7.70;;;;;;;6.67;64.94;99823.75;5010141;28;20277;-66
2021/04/05 06:09:43;;;;;;;17.20;8.25;;;;;;;6.68;65.05;99836.75;4986542;28;20197;-67
2021/04/05 06:12:21;;;;;;;16.85;7.35;;;;;;;6.59;65.60;99824.47;5009692;28;20057;-68
2021/04/05 06:14:54;;;;;;;25.10;9.50;;;;;;;6.69;65.17;99830.50;5009704;28;20065;-67
2021/04/05 06:17:44;;;;;;;30.02;10.23;;;;;;;6.72;65.00;99826.75;5005313;28;20530;-67
2021/04/05 06:20:09;;;;;;;19.90;9.63;;;;;;;6.80;64.70;99826.88;4961357;28;20045;-68
2021/04/05 06:22:55;;;;;;;16.27;8.40;;;;;;;6.90;64.65;99822.41;5010369;28;20121;-67
2021/04/05 06:25:30;;;;;;;20.98;9.65;;;;;;;6.97;64.34;99820.03;5005003;28;20521;-67
2021/04/05 06:28:14;;;;;;;15.27;7.93;;;;;;;7.00;64.56;99831.06;5010802;28;20410;-67
2021/04/05 06:30:48;;;;;;;19.88;9.23;;;;;;;7.10;64.34;99819.69;5006897;28;20431;-68
2021/04/05 06:33:27;;;;;;;20.20;8.45;;;;;;;7.15;64.06;99822.69;5003758;28;20125;-67
2021/04/05 06:36:10;;;;;;;19.58;9.30;;;;;;;7.32;64.01;99823.72;5007445;28;20042;-67
2021/04/05 06:38:43;;;;;;;12.48;7.55;;;;;;;7.32;64.53;99824.56;5009254;28;20510;-67
2021/04/05 06:41:40;;;;;;;19.63;8.88;;;;;;;7.54;63.34;99831.19;4998936;28;20088;-68
2021/04/05 06:44:28;;;;;;;18.20;9.27;;;;;;;7.78;62.86;99830.59;5003980;28;20026;-67
2021/04/05 06:47:05;;;;;;;19.00;7.60;;;;;;;7.91;62.84;99824.09;5008022;28;20034;-67
2021/04/05 06:49:42;;;;;;;23.08;10.73;;;;;;;8.19;61.94;99830.09;5003487;28;20088;-67
2021/04/05 06:52:29;;;;;;;21.52;10.50;;;;;;;8.54;60.99;99818.66;5008527;28;20046;-68
2021/04/05 06:55:15;;;;;;;16.73;8.45;;;;;;;8.84;60.40;99813.88;5006984;28;20034;-67
2021/04/05 06:58:05;;;;;;;24.02;11.45;;;;;;;9.48;58.16;99812.41;5010177;28;20141;-67
2021/04/05 07:00:40;;;;;;;18.10;9.23;;;;;;;9.69;58.09;99816.41;5008518;28;20042;-67
2021/04/05 07:03:23;;;;;;;20.73;10.70;;;;;;;9.93;56.66;99815.59;5009878;28;20092;-67
2021/04/05 07:06:03;;;;;;;20.00;9.52;;;;;;;9.98;57.60;99794.81;5006635;28;20430;-67
2021/04/05 07:08:54;;;;;;;20.65;10.30;;;;;;;10.35;56.84;99781.09;5003454;28;20033;-67
2021/04/05 07:11:48;;;;;;;25.30;12.23;;;;;;;10.55;54.65;99788.63;4947957;28;20045;-67
2021/04/05 07:14:35;;;;;;;19.17;11.75;;;;;;;10.70;53.18;99786.09;5004774;28;20044;-68
2021/04/05 07:17:13;;;;;;;17.60;10.10;;;;;;;10.55;53.97;99778.06;4999452;28;20454;-67
2021/04/05 07:20:02;;;;;;;28.83;14.63;;;;;;;10.77;51.97;99765.91;5005535;28;20101;-66
2021/04/05 07:22:43;;;;;;;25.92;14.13;;;;;;;10.45;52.29;99754.47;5002846;28;20652;-67
2021/04/05 07:25:17;;;;;;;26.98;14.20;;;;;;;10.29;52.51;99765.91;5010092;28;20045;-67
2021/04/05 07:28:19;;;;;;;22.98;13.32;;;;;;;10.34;52.20;99766.22;4998954;28;20606;-67
2021/04/05 07:31:06;;;;;;;21.70;11.52;;;;;;;10.26;52.42;99768.03;4987981;28;20400;-67
2021/04/05 07:33:36;;;;;;;23.02;13.20;;;;;;;10.37;51.40;99759.78;5003062;28;20039;-67
2021/04/05 07:36:27;;;;;;;22.30;12.43;;;;;;;10.37;52.01;99768.53;5007131;28;20372;-68
2021/04/05 07:39:17;;;;;;;21.70;12.27;;;;;;;10.46;51.08;99764.03;5009049;28;20253;-67
2021/04/05 07:42:10;;;;;;;21.17;12.93;;;;;;;10.52;51.08;99765.19;5005565;28;20235;-67
2021/04/05 07:44:55;;;;;;;23.27;13.65;;;;;;;10.82;49.40;99767.06;4991555;28;20058;-67
2021/04/05 07:47:59;;;;;;;25.42;13.75;;;;;;;10.51;50.27;99774.94;5005775;28;20044;-67
2021/04/05 07:50:33;;;;;;;22.65;13.95;;;;;;;10.12;50.45;99767.72;5001918;28;20084;-67
2021/04/05 07:53:07;;;;;;;22.02;11.38;;;;;;;10.17;50.08;99761.94;5009084;28;20046;-67
2021/04/05 07:55:33;;;;;;;21.83;11.85;;;;;;;10.00;50.51;99754.03;5003143;28;20039;-67
2021/04/05 07:58:24;;;;;;;19.67;10.82;;;;;;;9.93;50.07;99749.59;4999353;28;20037;-67
2021/04/05 08:01:08;;;;;;;22.10;11.50;;;;;;;9.94;50.34;99748.59;5006102;28;20041;-67
2021/04/05 08:03:51;;;;;;;23.88;12.55;;;;;;;9.77;50.56;99747.75;5009207;28;20426;-67
2021/04/05 08:06:16;;;;;;;18.20;10.93;;;;;;;9.62;52.67;99733.59;5000133;28;20042;-67
2021/04/05 08:08:54;;;;;;;18.60;10.60;;;;;;;9.66;52.37;99732.28;5009213;28;20052;-67
2021/04/05 08:11:45;;;;;;;19.40;11.85;;;;;;;9.89;50.21;99729.78;4995910;28;20033;-67
2021/04/05 08:14:15;;;;;;;19.17;10.60;;;;;;;9.98;49.79;99721.66;5008043;28;20046;-68
2021/04/05 08:17:16;;;;;;;25.17;12.65;;;;;;;10.09;49.59;99727.63;5008666;28;20038;-68
2021/04/05 08:19:55;;;;;;;19.58;11.57;;;;;;;9.80;51.75;99734.25;5001504;28;20438;-67
2021/04/05 08:22:36;;;;;;;22.27;11.48;;;;;;;9.85;49.33;99729.28;5008200;28;20030;-67
2021/04/05 08:25:08;;;;;;;23.58;11.70;;;;;;;9.59;50.15;99739.22;5008694;28;20449;-67
2021/04/05 08:27:43;;;;;;;20.50;10.63;;;;;;;9.39;50.43;99750.09;5009589;28;20045;-66
2021/04/05 08:30:12;;;;;;;21.23;12.10;;;;;;;9.30;52.34;99765.06;5011828;28;20715;-68
2021/04/05 08:33:26;;;;;;;18.60;10.52;;;;;;;9.33;52.47;99763.91;5009169;28;20046;-67
2021/04/05 08:36:05;;;;;;;24.48;12.90;;;;;;;9.21;53.59;99750.22;5009567;28;20034;-67
2021/04/05 08:38:43;;;;;;;18.65;10.98;;;;;;;9.35;52.22;99743.47;5012579;28;20041;-67
2021/04/05 08:41:23;;;;;;;26.33;13.15;;;;;;;9.30;52.80;99740.50;5010075;28;20046;-68
2021/04/05 08:44:13;;;;;;;18.23;11.07;;;;;;;9.17;52.59;99735.69;5009428;28;20084;-66
2021/04/05 08:46:39;;;;;;;22.73;12.25;;;;;;;9.19;53.53;99728.44;4991405;28;20053;-67
2021/04/05 08:49:14;;;;;;;20.95;10.70;;;;;;;9.22;53.90;99736.03;4998446;28;20098;-67
2021/04/05 08:51:45;;;;;;;28.77;13.85;;;;;;;9.10;55.06;99738.13;5008324;28;20045;-67
2021/04/05 08:54:13;;;;;;;19.73;12.02;;;;;;;9.02;55.62;99740.78;5001301;28;20039;-68
2021/04/05 08:56:54;;;;;;;26.13;13.18;;;;;;;8.94;55.62;99730.22;5012571;28;20041;-68
2021/04/05 08:59:30;;;;;;;23.83;13.25;;;;;;;8.88;55.44;99730.84;5003879;28;20504;-67
2021/04/05 09:02:17;;;;;;;21.95;12.70;;;;;;;8.82;55.87;99726.19;5012161;28;20029;-67
2021/04/05 09:04:44;;;;;;;21.67;11.80;;;;;;;8.72;55.90;99726.34;5011962;28;20506;-67
2021/04/05 09:07:34;;;;;;;21.50;11.95;;;;;;;8.59;55.40;99726.78;5009495;28;20041;-67
2021/04/05 09:10:08;;;;;;;27.20;13.38;;;;;;;8.66;55.37;99735.72;5010724;28;20372;-67
2021/04/05 09:12:42;;;;;;;25.02;13.40;;;;;;;8.64;55.41;99721.03;5002458;28;20581;-67
2021/04/05 09:15:48;;;;;;;23.13;12.88;;;;;;;8.53;55.74;99722.13;5011609;28;20038;-67
2021/04/05 09:18:42;;;;;;;21.25;11.68;;;;;;;8.47;55.69;99720.97;5005722;28;20495;-68
2021/04/05 09:21:20;;;;;;;22.45;12.48;;;;;;;8.45;56.22;99722.94;5010977;28;20044;-68
2021/04/05 09:24:14;;;;;;;20.58;11.32;;;;;;;8.36;57.01;99721.22;4993814;28;20129;-67
2021/04/05 09:26:57;;;;;;;20.80;11.30;;;;;;;8.38;56.94;99721.88;5010596;28;20034;-68
2021/04/05 09:29:32;;;;;;;20.30;12.00;;;;;;;8.25;57.81;99717.06;5011675;28;20029;-66
2021/04/05 09:32:08;;;;;;;25.42;13.05;;;;;;;8.40;57.77;99713.88;5009428;28;20033;-67
2021/04/05 09:35:03;;;;;;;21.02;10.77;;;;;;;8.47;58.36;99704.34;4993247;28;20050;-68
2021/04/05 09:37:42;;;;;;;23.65;12.63;;;;;;;8.52;58.53;99707.31;5005413;28;20038;-68
2021/04/05 09:40:36;;;;;;;30.17;13.60;;;;;;;8.77;57.75;99691.59;5003411;28;20037;-68
2021/04/05 09:43:25;;;;;;;23.85;12.75;;;;;;;8.73;59.26;99700.81;5009724;28;20033;-67
2021/04/05 09:45:57;;;;;;;20.77;11.77;;;;;;;8.90;58.23;99703.31;5007394;28;20446;-67
2021/04/05 09:48:46;;;;;;;22.63;12.60;;;;;;;8.87;58.38;99702.84;5002320;28;20057;-67
2021/04/05 09:51:20;;;;;;;24.17;13.02;;;;;;;9.07;58.90;99700.72;5010351;28;20092;-68
2021/04/05 09:54:00;;;;;;;23.20;11.90;;;;;;;9.19;57.25;99695.97;5010824;28;20034;-68
2021/04/05 09:56:32;;;;;;;26.87;13.93;;;;;;;9.24;57.21;99681.28;5004091;28;20064;-67
2021/04/05 09:59:02;;;;;;;;;;;;;;;9.17;57.92;99682.13;5009715;28;20034;-67
2021/04/05 10:01:30;;;;;;;25.65;12.88;;;;;;;9.22;58.33;99677.16;4998633;28;19924;-67
2021/04/05 10:04:00;;;;;;;28.00;13.57;;;;;;;9.19;58.22;99673.03;5008728;28;20069;-66
2021/04/05 10:06:30;;;;;;;24.50;12.88;;;;;;;9.06;60.01;99691.19;5010270;28;20034;-67
2021/04/05 10:08:58;;;;;;;25.45;14.02;;;;;;;9.05;58.97;99677.16;4998831;28;20030;-67
2021/04/05 10:11:28;;;;;;;24.10;13.40;;;;;;;8.97;59.68;99676.31;5002423;28;20435;-67
2021/04/05 10:13:57;;;;;;;27.27;13.60;;;;;;;8.90;60.21;99671.69;5007733;28;20042;-67
2021/04/05 10:16:24;;;;;;;28.50;14.43;;;;;;;8.95;59.86;99671.22;4989369;28;20041;-67
2021/04/05 10:19:10;;;;;;;33.75;14.23;;;;;;;8.90;60.51;99673.50;5007614;28;20057;-67
2021/04/05 10:21:42;;;;;;;27.85;14.23;;;;;;;9.02;58.94;99653.75;4992441;28;20034;-67
2021/04/05 10:24:09;;;;;;;26.25;14.13;;;;;;;8.92;59.39;99661.81;5009827;28;20402;-68
2021/04/05 10:26:38;;;;;;;29.27;14.48;;;;;;;8.97;59.98;99658.69;5010332;28;20495;-67
2021/04/05 10:29:10;;;;;;;28.10;15.77;;;;;;;8.98;59.61;99657.69;5008154;28;20130;-67
2021/04/05 10:31:36;;;;;;;22.25;12.73;;;;;;;8.94;61.13;99659.03;4993139;28;20034;-67
2021/04/05 10:34:06;;;;;;;31.83;14.30;;;;;;;9.08;59.38;99650.47;5009288;28;20041;-66
2021/04/05 10:36:39;;;;;;;24.42;13.93;;;;;;;9.01;59.93;99646.00;5004226;28;20529;-68
2021/04/05 10:39:05;;;;;;;25.27;13.15;;;;;;;9.07;59.30;99640.06;5004171;28;20124;-67
2021/04/05 10:41:33;;;;;;;28.50;15.05;;;;;;;9.11;58.59;99634.31;5010349;28;20037;-66
2021/04/05 10:44:06;;;;;;;30.23;15.48;;;;;;;8.91;59.66;99635.59;5010563;28;20037;-67
2021/04/05 10:46:37;;;;;;;29.08;15.70;;;;;;;8.84;59.34;99638.09;4999835;28;20038;-67
2021/04/05 10:49:09;;;;;;;24.65;14.98;;;;;;;8.74;59.93;99631.28;5006685;28;20038;-67
2021/04/05 10:51:48;;;;;;;26.08;13.93;;;;;;;8.78;59.83;99630.00;5008940;28;20065;-67
2021/04/05 10:54:26;;;;;;;28.25;15.10;;;;;;;8.71;60.80;99630.63;5006391;28;20054;-68
2021/04/05 10:56:59;;;;;;;27.50;13.77;;;;;;;8.68;60.94;99633.59;5009442;28;20566;-68
2021/04/05 10:59:56;;;;;;;36.25;16.55;;;;;;;8.79;60.39;99629.00;5010312;28;20037;-67
2021/04/05 11:02:31;;;;;;;29.00;14.70;;;;;;;8.67;61.17;99642.47;5007032;28;20347;-68
2021/04/05 11:05:00;;;;;;;24.80;12.60;;;;;;;8.59;61.31;99626.66;5009607;28;20040;-67
2021/04/05 11:07:30;;;;;;;30.42;14.52;;;;;;;8.61;61.22;99629.13;5008654;28;20054;-67
2021/04/05 11:09:58;;;;;;;30.92;14.93;;;;;;;8.63;60.57;99622.72;5003439;28;20033;-67
2021/04/05 11:12:31;;;;;;;23.45;12.85;;;;;;;8.54;61.63;99623.69;5007585;28;20492;-67
2021/04/05 11:15:00;;;;;;;23.35;13.73;;;;;;;8.52;63.01;99628.28;5008557;28;20304;-68
2021/04/05 11:17:26;;;;;;;28.83;14.73;;;;;;;8.48;62.88;99634.84;5008450;28;20033;-68
2021/04/05 11:19:54;;;;;;;29.65;16.65;;;;;;;8.54;61.71;99631.59;5009626;28;20065;-67
2021/04/05 11:22:23;;;;;;;31.58;15.30;;;;;;;8.55;61.46;99619.22;5004985;28;20080;-67
2021/04/05 11:25:01;;;;;;;29.60;17.00;;;;;;;8.47;62.01;99622.66;5007821;28;20087;-68
2021/04/05 11:27:29;;;;;;;26.45;15.07;;;;;;;8.49;61.75;99618.06;5009277;28;20506;-68
2021/04/05 11:29:58;;;;;;;30.73;14.73;;;;;;;8.45;62.10;99616.72;5009464;28;20030;-67
2021/04/05 11:32:27;;;;;;;25.50;13.88;;;;;;;8.53;61.57;99614.09;4997665;28;20042;-68
2021/04/05 11:34:56;;;;;;;24.33;13.00;;;;;;;8.48;62.04;99616.41;4988781;28;20037;-68
2021/04/05 11:37:26;;;;;;;22.33;13.57;;;;;;;8.47;63.07;99604.22;5006444;28;20506;-67
2021/04/05 11:40:01;;;;;;;25.67;13.50;;;;;;;8.55;62.58;99604.25;5007253;28;20040;-67
2021/04/05 11:42:42;;;;;;;30.70;14.07;;;;;;;8.62;61.21;99599.16;5000539;28;20403;-68
2021/04/05 11:45:09;;;;;;;24.65;13.32;;;;;;;8.61;61.20;99606.25;5007819;28;20069;-67
2021/04/05 11:47:38;;;;;;;27.38;12.88;;;;;;;8.61;61.87;99600.97;5003694;28;20042;-68
2021/04/05 11:50:12;;;;;;;23.95;13.13;;;;;;;8.61;61.80;99594.88;4991574;28;20387;-67
2021/04/05 11:52:43;;;;;;;19.58;11.60;;;;;;;8.56;62.20;99608.53;5008290;28;20034;-68
2021/04/05 11:55:13;;;;;;;24.85;11.80;;;;;;;8.47;63.59;99605.03;5008543;28;20096;-67